createdAt,value
2019-02-20T00:00:09.770Z,72.50
2019-02-20T00:02:38.460Z,72.50
2019-02-20T00:05:06.992Z,72.40
2019-02-20T00:07:35.423Z,72.40
2019-02-20T00:10:23.223Z,72.40
2019-02-20T00:12:51.657Z,72.40
2019-02-20T00:15:20.123Z,72.40
2019-02-20T00:17:48.592Z,72.50
2019-02-20T00:20:17.122Z,72.40
2019-02-20T00:22:45.574Z,72.40
2019-02-20T00:25:14.031Z,72.30
2019-02-20T00:27:42.484Z,72.30
2019-02-20T00:30:11.319Z,72.30
2019-02-20T00:32:39.778Z,72.30
2019-02-20T00:35:08.290Z,72.60
2019-02-20T00:37:36.741Z,72.40
2019-02-20T00:40:08.113Z,72.50
2019-02-20T00:42:36.555Z,72.50
2019-02-20T00:45:15.103Z,72.60
2019-02-20T00:47:45.194Z,72.50
2019-02-20T00:50:14.791Z,72.50
2019-02-20T00:53:03.079Z,72.40
2019-02-20T00:55:31.556Z,72.50
2019-02-20T00:57:59.995Z,72.50
2019-02-20T01:00:28.438Z,72.50
2019-02-20T01:02:56.896Z,72.60
2019-02-20T01:05:25.355Z,72.60
2019-02-20T01:07:53.793Z,72.70
2019-02-20T01:10:22.284Z,72.70
2019-02-20T01:12:50.717Z,72.70
2019-02-20T01:15:19.175Z,72.70
2019-02-20T01:17:47.623Z,72.70
2019-02-20T01:20:16.069Z,72.80
2019-02-20T01:22:44.522Z,72.70
2019-02-20T01:25:13.039Z,72.60
2019-02-20T01:27:41.495Z,72.60
2019-02-20T01:30:11.958Z,72.50
2019-02-20T01:32:40.413Z,72.50
2019-02-20T01:35:08.995Z,72.40
2019-02-20T01:37:37.449Z,72.30
2019-02-20T01:40:06.829Z,72.20
2019-02-20T01:42:35.294Z,72.30
2019-02-20T01:45:04.273Z,72.20
2019-02-20T01:47:32.737Z,72.30
2019-02-20T01:50:01.328Z,72.30
2019-02-20T01:52:29.769Z,72.20
2019-02-20T01:54:58.222Z,72.20
2019-02-20T01:57:26.676Z,72.10
2019-02-20T01:59:55.113Z,72.10
2019-02-20T02:02:23.566Z,72.10
2019-02-20T02:04:52.020Z,72.10
2019-02-20T02:07:20.486Z,72.10
2019-02-20T02:09:48.939Z,72.10
2019-02-20T02:12:17.383Z,72.10
2019-02-20T02:14:45.902Z,72.10
2019-02-20T02:17:14.343Z,72.10
2019-02-20T02:19:42.811Z,72.20
2019-02-20T02:22:11.246Z,72.10
2019-02-20T02:24:39.703Z,72.20
2019-02-20T02:27:08.167Z,72.10
2019-02-20T02:29:36.614Z,72.20
2019-02-20T02:32:05.114Z,72.30
2019-02-20T02:34:33.557Z,72.30
2019-02-20T02:37:01.993Z,72.30
2019-02-20T02:39:30.462Z,72.40
2019-02-20T02:41:58.909Z,72.40
2019-02-20T02:44:27.411Z,72.50
2019-02-20T02:46:55.872Z,72.50
2019-02-20T02:49:24.399Z,72.40
2019-02-20T02:51:52.861Z,72.40
2019-02-20T02:54:21.306Z,72.50
2019-02-20T02:56:49.759Z,72.50
2019-02-20T02:59:18.240Z,72.30
2019-02-20T03:01:46.779Z,72.40
2019-02-20T03:04:15.241Z,72.40
2019-02-20T03:06:43.734Z,72.40
2019-02-20T03:09:12.191Z,72.40
2019-02-20T03:11:40.636Z,72.30
2019-02-20T03:14:09.110Z,72.30
2019-02-20T03:16:37.622Z,72.30
2019-02-20T03:19:06.130Z,72.30
2019-02-20T03:21:34.607Z,72.20
2019-02-20T03:24:03.112Z,72.10
2019-02-20T03:26:31.546Z,72.20
2019-02-20T03:28:59.982Z,72.00
2019-02-20T03:31:28.438Z,72.10
2019-02-20T03:33:56.905Z,71.90
2019-02-20T03:36:25.480Z,72.10
2019-02-20T03:38:54.044Z,72.10
2019-02-20T03:41:22.505Z,72.10
2019-02-20T03:44:10.283Z,72.10
2019-02-20T03:46:58.083Z,72.10
2019-02-20T03:49:26.831Z,72.10
2019-02-20T03:51:55.278Z,72.00
2019-02-20T03:54:23.791Z,72.10
2019-02-20T03:56:52.246Z,72.10
2019-02-20T03:59:20.695Z,72.10
2019-02-20T04:01:49.134Z,72.10
2019-02-20T04:04:17.650Z,72.10
2019-02-20T04:06:46.088Z,72.10
2019-02-20T04:09:14.535Z,72.10
2019-02-20T04:11:43.000Z,72.20
2019-02-20T04:14:11.443Z,72.20
2019-02-20T04:16:39.891Z,72.30
2019-02-20T04:19:08.349Z,72.30
2019-02-20T04:21:36.787Z,72.30
2019-02-20T04:24:05.252Z,72.30
2019-02-20T04:26:35.327Z,72.30
2019-02-20T04:29:03.825Z,72.30
2019-02-20T04:31:32.322Z,72.30
2019-02-20T04:34:00.866Z,72.20
2019-02-20T04:36:29.382Z,72.30
2019-02-20T04:38:57.835Z,72.30
2019-02-20T04:41:26.333Z,72.20
2019-02-20T04:43:54.831Z,72.30
2019-02-20T04:46:23.339Z,72.30
2019-02-20T04:48:51.783Z,72.30
2019-02-20T04:51:20.332Z,72.50
2019-02-20T04:53:48.790Z,72.50
2019-02-20T04:56:17.231Z,72.50
2019-02-20T04:58:47.058Z,72.50
2019-02-20T05:01:15.496Z,72.40
2019-02-20T05:03:43.943Z,72.70
2019-02-20T05:06:12.422Z,72.40
2019-02-20T05:08:40.963Z,72.50
2019-02-20T05:11:09.463Z,72.50
2019-02-20T05:13:37.928Z,72.40
2019-02-20T05:16:06.384Z,72.40
2019-02-20T05:18:34.936Z,73.20
2019-02-20T05:21:03.387Z,72.50
2019-02-20T05:23:31.851Z,72.50
2019-02-20T05:26:00.310Z,72.60
2019-02-20T05:28:28.771Z,72.50
2019-02-20T05:30:57.263Z,72.50
2019-02-20T05:33:25.728Z,72.50
2019-02-20T05:35:54.168Z,72.50
2019-02-20T05:38:22.642Z,72.50
2019-02-20T05:40:51.157Z,72.50
2019-02-20T05:43:19.747Z,72.60
2019-02-20T05:45:48.180Z,72.70
2019-02-20T05:48:16.988Z,72.60
2019-02-20T05:50:45.495Z,72.60
2019-02-20T05:53:14.009Z,72.70
2019-02-20T05:55:42.466Z,72.60
2019-02-20T05:58:10.919Z,72.60
2019-02-20T06:00:39.443Z,72.60
2019-02-20T06:03:07.887Z,72.70
2019-02-20T06:05:36.368Z,72.70
2019-02-20T06:08:04.814Z,72.70
2019-02-20T06:10:33.261Z,72.80
2019-02-20T06:13:01.711Z,72.80
2019-02-20T06:15:30.171Z,72.80
2019-02-20T06:17:58.658Z,73.60
2019-02-20T06:20:27.168Z,72.90
2019-02-20T06:22:55.624Z,72.90
2019-02-20T06:25:24.087Z,72.90
2019-02-20T06:27:52.603Z,72.90
2019-02-20T06:30:21.049Z,72.90
2019-02-20T06:32:49.490Z,72.90
2019-02-20T06:35:17.956Z,72.90
2019-02-20T06:37:46.399Z,72.90
2019-02-20T06:40:14.839Z,72.90
2019-02-20T06:42:43.319Z,72.90
2019-02-20T06:45:12.320Z,72.90
2019-02-20T06:47:40.816Z,72.90
2019-02-20T06:50:09.344Z,72.90
2019-02-20T06:52:37.786Z,73.00
2019-02-20T06:55:09.674Z,72.90
2019-02-20T06:57:38.143Z,73.10
2019-02-20T07:00:09.836Z,73.10
2019-02-20T07:02:38.275Z,73.10
2019-02-20T07:05:30.255Z,73.10
2019-02-20T07:08:28.880Z,73.20
2019-02-20T07:11:25.768Z,73.10
2019-02-20T07:14:25.939Z,73.10
2019-02-20T07:17:03.062Z,73.10
2019-02-20T07:19:40.492Z,73.30
2019-02-20T07:22:27.061Z,73.30
2019-02-20T07:25:13.031Z,74.10
2019-02-20T07:28:17.567Z,73.40
2019-02-20T07:30:46.006Z,73.40
2019-02-20T07:33:14.478Z,73.50
2019-02-20T07:35:42.991Z,73.60
2019-02-20T07:38:11.451Z,73.60
2019-02-20T07:40:39.912Z,73.60
2019-02-20T07:43:08.350Z,73.60
2019-02-20T07:45:36.881Z,73.60
2019-02-20T07:48:05.318Z,73.60
2019-02-20T07:50:33.780Z,73.70
2019-02-20T07:53:02.320Z,73.70
2019-02-20T07:55:30.775Z,73.60
2019-02-20T07:57:59.259Z,73.60
2019-02-20T08:00:27.700Z,73.70
2019-02-20T08:02:56.188Z,73.70
2019-02-20T08:05:24.722Z,73.60
2019-02-20T08:07:53.161Z,73.60
2019-02-20T08:10:21.670Z,73.60
2019-02-20T08:12:50.116Z,73.60
2019-02-20T08:15:18.626Z,73.50
2019-02-20T08:17:47.084Z,73.40
2019-02-20T08:20:15.531Z,73.20
2019-02-20T08:22:43.993Z,73.30
2019-02-20T08:25:12.586Z,73.20
2019-02-20T08:27:41.054Z,73.20
2019-02-20T08:30:12.450Z,73.60
2019-02-20T08:32:40.912Z,73.20
2019-02-20T08:35:11.221Z,73.20
2019-02-20T08:37:39.706Z,73.20
2019-02-20T08:40:13.907Z,73.10
2019-02-20T08:42:42.352Z,72.90
2019-02-20T08:45:12.269Z,73.00
2019-02-20T08:47:40.736Z,73.00
2019-02-20T08:50:11.755Z,72.80
2019-02-20T08:52:40.263Z,72.80
2019-02-20T08:55:10.344Z,72.90
2019-02-20T08:57:38.811Z,72.80
2019-02-20T09:00:12.895Z,72.90
2019-02-20T09:02:41.373Z,73.00
2019-02-20T09:05:11.455Z,72.90
2019-02-20T09:07:39.928Z,73.10
2019-02-20T09:10:10.712Z,73.00
2019-02-20T09:12:39.164Z,73.00
2019-02-20T09:15:10.591Z,73.00
2019-02-20T09:17:39.051Z,73.20
2019-02-20T09:20:10.044Z,73.10
2019-02-20T09:22:39.587Z,73.30
2019-02-20T09:25:19.201Z,73.20
2019-02-20T09:27:40.652Z,72.80
2019-02-20T09:30:14.149Z,73.00
2019-02-20T09:32:42.644Z,72.80
2019-02-20T09:35:11.529Z,72.50
2019-02-20T09:37:39.983Z,72.50
2019-02-20T09:40:16.782Z,72.50
2019-02-20T09:42:48.181Z,72.30
2019-02-20T09:45:16.621Z,72.60
2019-02-20T09:47:45.374Z,72.30
2019-02-20T09:50:13.907Z,72.40
2019-02-20T09:52:51.670Z,72.10
2019-02-20T09:55:13.587Z,72.00
2019-02-20T09:57:42.031Z,72.10
2019-02-20T10:00:16.407Z,71.80
2019-02-20T10:02:44.851Z,71.70
2019-02-20T10:05:13.406Z,71.40
2019-02-20T10:07:41.835Z,71.50
2019-02-20T10:10:11.449Z,71.80
2019-02-20T10:12:39.904Z,72.40
2019-02-20T10:15:13.975Z,71.40
2019-02-20T10:17:42.464Z,71.50
2019-02-20T10:20:11.424Z,71.70
2019-02-20T10:22:39.867Z,71.40
2019-02-20T10:25:10.962Z,71.20
2019-02-20T10:27:39.435Z,71.30
2019-02-20T10:30:16.361Z,71.00
2019-02-20T10:32:44.803Z,71.10
2019-02-20T10:35:13.322Z,71.10
2019-02-20T10:37:41.788Z,70.80
2019-02-20T10:40:11.178Z,70.80
2019-02-20T10:42:39.630Z,70.50
2019-02-20T10:45:12.412Z,71.40
2019-02-20T10:47:40.963Z,70.90
2019-02-20T10:50:13.930Z,70.90
2019-02-20T10:52:42.395Z,70.80
2019-02-20T10:55:11.494Z,70.70
2019-02-20T10:57:39.948Z,70.60
2019-02-20T11:00:23.150Z,70.50
2019-02-20T11:02:43.420Z,70.10
2019-02-20T11:05:11.861Z,70.40
2019-02-20T11:07:40.324Z,70.40
2019-02-20T11:10:08.883Z,70.20
2019-02-20T11:12:37.377Z,70.40
2019-02-20T11:15:07.556Z,70.10
2019-02-20T11:17:37.285Z,70.30
2019-02-20T11:20:11.034Z,70.20
2019-02-20T11:22:39.483Z,70.40
2019-02-20T11:25:10.497Z,70.10
2019-02-20T11:27:39.533Z,70.10
2019-02-20T11:30:11.382Z,70.10
2019-02-20T11:32:39.834Z,70.00
2019-02-20T11:35:09.065Z,69.80
2019-02-20T11:37:37.539Z,69.90
2019-02-20T11:40:08.229Z,69.60
2019-02-20T11:42:36.683Z,69.60
2019-02-20T11:45:10.569Z,69.70
2019-02-20T11:47:39.035Z,69.70
2019-02-20T11:50:10.028Z,69.50
2019-02-20T11:52:38.756Z,69.10
2019-02-20T11:55:09.740Z,69.40
2019-02-20T11:57:38.858Z,69.40
2019-02-20T12:00:14.880Z,69.20
2019-02-20T12:02:43.337Z,69.10
2019-02-20T12:05:12.271Z,68.90
2019-02-20T12:07:40.900Z,68.80
2019-02-20T12:10:16.146Z,68.90
2019-02-20T12:12:44.683Z,68.80
2019-02-20T12:15:13.230Z,68.60
2019-02-20T12:17:41.763Z,68.70
2019-02-20T12:20:10.467Z,68.80
2019-02-20T12:22:38.944Z,68.80
2019-02-20T12:25:09.504Z,68.90
2019-02-20T12:27:37.996Z,69.10
2019-02-20T12:30:11.217Z,69.20
2019-02-20T12:32:39.999Z,68.60
2019-02-20T12:35:09.223Z,68.80
2019-02-20T12:37:37.667Z,68.10
2019-02-20T12:40:08.450Z,67.50
2019-02-20T12:42:36.957Z,67.40
2019-02-20T12:45:07.210Z,67.60
2019-02-20T12:47:35.680Z,67.40
2019-02-20T12:50:06.126Z,67.80
2019-02-20T12:52:34.590Z,67.50
2019-02-20T12:55:03.039Z,67.80
2019-02-20T12:57:31.515Z,67.80
2019-02-20T12:59:59.960Z,67.60
2019-02-20T13:02:28.411Z,67.60
2019-02-20T13:04:56.888Z,67.70
2019-02-20T13:07:25.340Z,66.50
2019-02-20T13:09:53.808Z,66.50
2019-02-20T13:12:22.251Z,66.10
2019-02-20T13:14:50.710Z,65.50
2019-02-20T13:17:19.158Z,65.20
2019-02-20T13:19:47.627Z,65.30
2019-02-20T13:22:16.784Z,65.50
2019-02-20T13:24:45.429Z,65.40
2019-02-20T13:27:22.294Z,65.60
2019-02-20T13:29:44.058Z,65.20
2019-02-20T13:32:12.512Z,65.20
2019-02-20T13:34:40.979Z,65.60
2019-02-20T13:37:09.417Z,65.30
2019-02-20T13:39:37.887Z,65.50
2019-02-20T13:42:06.412Z,65.40
2019-02-20T13:44:35.186Z,65.70
2019-02-20T13:47:04.990Z,65.30
2019-02-20T13:49:33.799Z,64.90
2019-02-20T13:52:02.320Z,65.10
2019-02-20T13:54:30.887Z,65.00
2019-02-20T13:57:01.761Z,65.20
2019-02-20T13:59:29.511Z,64.50
2019-02-20T14:01:58.442Z,65.00
2019-02-20T14:04:26.980Z,65.00
2019-02-20T14:06:55.524Z,65.40
2019-02-20T14:09:24.116Z,64.60
2019-02-20T14:11:52.600Z,64.20
2019-02-20T14:14:21.299Z,64.00
2019-02-20T14:16:49.826Z,63.40
2019-02-20T14:19:18.387Z,63.10
2019-02-20T14:21:46.903Z,62.70
2019-02-20T14:24:15.448Z,62.60
2019-02-20T14:26:43.914Z,62.50
2019-02-20T14:29:12.456Z,62.50
2019-02-20T14:31:42.774Z,62.30
2019-02-20T14:34:11.182Z,61.80
2019-02-20T14:36:39.710Z,61.40
2019-02-20T14:39:08.424Z,62.10
2019-02-20T14:41:36.963Z,62.60
2019-02-20T14:44:05.486Z,62.90
2019-02-20T14:46:34.042Z,62.70
2019-02-20T14:49:02.571Z,62.30
2019-02-20T14:51:31.501Z,61.10
2019-02-20T14:54:00.027Z,60.60
2019-02-20T14:56:28.592Z,60.80
2019-02-20T14:58:57.134Z,60.80
2019-02-20T15:01:25.649Z,60.60
2019-02-20T15:03:54.198Z,61.00
2019-02-20T15:06:22.707Z,60.60
2019-02-20T15:08:51.250Z,60.90
2019-02-20T15:11:19.771Z,60.80
2019-02-20T15:13:48.338Z,61.00
2019-02-20T15:16:16.868Z,61.40
2019-02-20T15:18:45.386Z,61.60
2019-02-20T15:21:13.928Z,61.90
2019-02-20T15:23:42.767Z,62.10
2019-02-20T15:26:11.292Z,61.90
2019-02-20T15:28:39.831Z,61.80
2019-02-20T15:31:08.355Z,61.90
2019-02-20T15:33:36.897Z,62.10
2019-02-20T15:36:05.421Z,61.90
2019-02-20T15:38:33.955Z,61.80
2019-02-20T15:41:02.680Z,62.30
2019-02-20T15:43:31.219Z,62.10
2019-02-20T15:45:59.740Z,62.20
2019-02-20T15:48:28.186Z,62.10
2019-02-20T15:50:56.730Z,61.90
2019-02-20T15:53:25.256Z,62.20
2019-02-20T15:55:53.796Z,62.40
2019-02-20T15:58:22.359Z,62.60
2019-02-20T16:00:50.882Z,62.80
2019-02-20T16:03:19.402Z,62.70
2019-02-20T16:05:47.877Z,62.90
2019-02-20T16:08:16.404Z,62.80
2019-02-20T16:10:44.937Z,63.00
2019-02-20T16:13:13.450Z,63.10
2019-02-20T16:15:41.996Z,63.10
2019-02-20T16:18:11.025Z,62.90
2019-02-20T16:20:39.570Z,63.00
2019-02-20T16:23:08.110Z,62.90
2019-02-20T16:25:36.643Z,62.80
2019-02-20T16:28:05.104Z,62.70
2019-02-20T16:30:34.237Z,62.70
2019-02-20T16:33:02.761Z,62.60
2019-02-20T16:35:31.348Z,62.40
2019-02-20T16:37:59.788Z,62.70
2019-02-20T16:40:28.317Z,62.90
2019-02-20T16:42:56.844Z,62.60
2019-02-20T16:45:25.836Z,63.00
2019-02-20T16:47:54.795Z,63.60
2019-02-20T16:50:23.243Z,63.10
2019-02-20T16:52:51.907Z,63.10
2019-02-20T16:55:22.550Z,63.40
2019-02-20T16:57:56.847Z,63.20
2019-02-20T17:00:22.422Z,63.30
2019-02-20T17:02:51.253Z,63.40
2019-02-20T17:05:19.876Z,63.40
2019-02-20T17:07:48.426Z,63.40
2019-02-20T17:10:17.127Z,63.20
2019-02-20T17:12:45.667Z,63.20
2019-02-20T17:15:15.867Z,63.20
2019-02-20T17:17:44.313Z,63.30
2019-02-20T17:20:14.971Z,63.40
2019-02-20T17:22:43.507Z,63.30
2019-02-20T17:25:31.384Z,63.10
2019-02-20T17:28:05.863Z,63.30
2019-02-20T17:30:30.143Z,63.30
2019-02-20T17:32:58.995Z,63.10
2019-02-20T17:35:27.531Z,63.10
2019-02-20T17:37:56.043Z,63.00
2019-02-20T17:40:24.514Z,62.90
2019-02-20T17:42:52.977Z,62.70
2019-02-20T17:45:21.500Z,62.40
2019-02-20T17:47:50.024Z,62.50
2019-02-20T17:50:20.746Z,62.60
2019-02-20T17:52:49.206Z,62.30
2019-02-20T17:55:17.653Z,62.20
2019-02-20T17:57:46.183Z,62.30
2019-02-20T18:00:18.610Z,62.30
2019-02-20T18:02:47.208Z,62.40
2019-02-20T18:05:15.745Z,62.40
2019-02-20T18:07:49.911Z,62.30
2019-02-20T18:10:14.590Z,62.30
2019-02-20T18:12:43.045Z,62.50
2019-02-20T18:15:13.556Z,62.30
2019-02-20T18:17:42.079Z,62.20
2019-02-20T18:20:11.367Z,62.80
2019-02-20T18:22:39.826Z,62.20
2019-02-20T18:25:10.094Z,61.90
2019-02-20T18:27:38.956Z,61.80
2019-02-20T18:30:14.920Z,62.10
2019-02-20T18:32:43.410Z,62.00
2019-02-20T18:35:19.062Z,61.70
2019-02-20T18:37:47.507Z,61.80
2019-02-20T18:40:18.071Z,62.00
2019-02-20T18:42:46.519Z,62.30
2019-02-20T18:45:15.812Z,61.80
2019-02-20T18:47:44.314Z,62.10
2019-02-20T18:50:14.288Z,62.20
2019-02-20T18:52:42.886Z,62.20
2019-02-20T18:55:12.857Z,62.30
2019-02-20T18:57:41.358Z,62.30
2019-02-20T19:00:15.376Z,62.40
2019-02-20T19:02:43.869Z,62.30
2019-02-20T19:05:12.574Z,62.40
2019-02-20T19:07:41.082Z,62.50
2019-02-20T19:10:13.055Z,62.10
2019-02-20T19:12:56.316Z,62.40
2019-02-20T19:15:36.480Z,62.10
2019-02-20T19:18:24.247Z,62.10
2019-02-20T19:21:04.827Z,62.10
2019-02-20T19:23:55.907Z,62.40
2019-02-20T19:26:27.512Z,62.40
2019-02-20T19:29:24.624Z,62.30
2019-02-20T19:31:58.872Z,62.50
2019-02-20T19:34:45.231Z,62.50
2019-02-20T19:37:35.088Z,63.20
2019-02-20T19:40:06.634Z,62.50
2019-02-20T19:43:03.767Z,62.50
2019-02-20T19:45:44.361Z,62.60
2019-02-20T19:48:30.779Z,62.50
2019-02-20T19:51:10.848Z,62.30
2019-02-20T19:53:44.895Z,62.30
2019-02-20T19:56:34.319Z,62.30
2019-02-20T19:59:14.393Z,62.10
2019-02-20T20:02:27.766Z,61.40
2019-02-20T20:05:13.959Z,61.70
2019-02-20T20:08:20.237Z,61.60
2019-02-20T20:11:20.727Z,61.50
2019-02-20T20:13:52.247Z,61.80
2019-02-20T20:16:40.378Z,61.70
2019-02-20T20:19:28.547Z,61.60
2019-02-20T20:22:14.498Z,61.80
2019-02-20T20:24:48.943Z,61.50
2019-02-20T20:27:38.531Z,61.70
2019-02-20T20:30:19.025Z,61.70
2019-02-20T20:33:20.288Z,61.80
2019-02-20T20:36:11.056Z,61.80
2019-02-20T20:38:45.538Z,61.70
2019-02-20T20:41:31.414Z,61.90
2019-02-20T20:44:31.897Z,61.80
2019-02-20T20:47:12.390Z,62.00
2019-02-20T20:49:43.911Z,62.10
2019-02-20T20:52:26.682Z,61.80
2019-02-20T20:55:00.562Z,62.20
2019-02-20T20:57:43.031Z,62.30
2019-02-20T21:00:36.701Z,62.10
2019-02-20T21:03:08.612Z,62.40
2019-02-20T21:05:56.651Z,62.30
2019-02-20T21:08:52.029Z,62.50
2019-02-20T21:11:29.319Z,62.30
2019-02-20T21:14:19.723Z,62.30
2019-02-20T21:17:00.250Z,62.30
2019-02-20T21:19:34.494Z,62.40
2019-02-20T21:22:18.029Z,62.30
2019-02-20T21:25:15.348Z,62.10
2019-02-20T21:27:46.883Z,62.40
2019-02-20T21:30:48.078Z,62.40
2019-02-20T21:33:51.392Z,62.00
2019-02-20T21:36:26.041Z,62.30
2019-02-20T21:39:18.152Z,62.40
2019-02-20T21:42:04.502Z,63.10
2019-02-20T21:44:44.307Z,62.20
2019-02-20T21:47:18.613Z,62.10
2019-02-20T21:49:50.131Z,62.30
2019-02-20T21:52:39.560Z,62.00
2019-02-20T21:55:30.623Z,62.40
2019-02-20T21:58:07.915Z,62.10
2019-02-20T22:00:58.799Z,62.00
2019-02-20T22:03:55.535Z,62.20
2019-02-20T22:06:32.969Z,62.30
2019-02-20T22:09:09.707Z,62.00
2019-02-20T22:11:59.618Z,62.20
2019-02-20T22:14:51.896Z,62.10
2019-02-20T22:17:43.908Z,62.30
2019-02-20T22:20:24.076Z,62.50
2019-02-20T22:22:58.161Z,62.60
2019-02-20T22:25:38.646Z,62.40
2019-02-20T22:28:34.663Z,62.30
2019-02-20T22:31:18.279Z,62.60
2019-02-20T22:34:05.032Z,62.50
2019-02-20T22:36:59.067Z,62.70
2019-02-20T22:39:39.539Z,62.80
2019-02-20T22:42:16.439Z,62.70
2019-02-20T22:45:04.462Z,62.80
2019-02-20T22:47:38.807Z,62.90
2019-02-20T22:50:27.023Z,62.80
2019-02-20T22:53:26.994Z,63.00
2019-02-20T22:56:35.108Z,62.70
2019-02-20T22:59:09.387Z,63.00
2019-02-20T23:01:53.013Z,63.10
2019-02-20T23:04:27.428Z,63.00
2019-02-20T23:07:07.442Z,63.20
2019-02-20T23:09:44.896Z,63.10
2019-02-20T23:12:37.087Z,63.10
2019-02-20T23:15:06.776Z,63.10
2019-02-20T23:17:35.238Z,63.10
2019-02-20T23:20:04.472Z,63.10
2019-02-20T23:22:33.009Z,63.00
2019-02-20T23:25:01.521Z,63.10
2019-02-20T23:27:30.045Z,63.20
2019-02-20T23:29:58.496Z,63.10
2019-02-20T23:32:26.952Z,63.00
2019-02-20T23:34:55.492Z,63.10
2019-02-20T23:37:23.949Z,62.80
2019-02-20T23:39:52.397Z,63.00
2019-02-20T23:42:20.866Z,63.10
2019-02-20T23:44:49.387Z,63.00
2019-02-20T23:47:17.838Z,63.10
2019-02-20T23:49:46.275Z,63.10
2019-02-20T23:52:14.739Z,63.10
2019-02-20T23:54:43.203Z,63.20
2019-02-20T23:57:11.670Z,63.10
2019-02-20T23:59:40.115Z,63.10
